Time;durP1;ratioP1;P1;durP2;ratioP2;P2;SDS_P1;SDS_P2;PMS_P1;PMS_P2;Temp;Humidity;BMP_temperature;BMP_pressure;BME280_temperature;BME280_humidity;BME280_pressure;Samples;Min_cycle;Max_cycle;Signal;HPM_P1;HPM_P2
2022/01/31 00:02:05;;;;;;;8.80;8.60;;;2.70;99.90;;;;;;6297726;22;20205;-81
2022/01/31 00:04:51;;;;;;;8.70;8.50;;;2.70;99.90;;;;;;6293952;22;20237;-83
2022/01/31 00:10:41;;;;;;;8.80;8.60;;;2.70;99.90;;;;;;6285183;22;20224;-83
2022/01/31 00:17:09;;;;;;;8.70;8.50;;;2.60;99.90;;;;;;6289774;22;20208;-83
2022/01/31 00:20:14;;;;;;;8.90;8.70;;;2.60;99.90;;;;;;6292263;22;20200;-83
2022/01/31 00:23:05;;;;;;;8.57;8.37;;;2.70;99.90;;;;;;6256101;22;20216;-83
2022/01/31 00:25:38;;;;;;;8.70;8.50;;;2.70;99.90;;;;;;6290909;22;20206;-83
2022/01/31 00:28:30;;;;;;;8.80;8.60;;;2.70;99.90;;;;;;6292318;22;20204;-82
2022/01/31 00:31:07;;;;;;;8.70;8.50;;;2.70;99.90;;;;;;6293444;22;20193;-81
2022/01/31 00:33:45;;;;;;;8.70;8.50;;;2.70;99.90;;;;;;6292315;22;20240;-82
2022/01/31 00:36:29;;;;;;;8.70;8.50;;;2.70;99.90;;;;;;6292157;22;20212;-82
2022/01/31 00:39:33;;;;;;;8.80;8.60;;;2.70;99.90;;;;;;6292800;22;20271;-82
2022/01/31 00:42:13;;;;;;;8.90;8.70;;;2.60;99.90;;;;;;6299648;22;20244;-82
2022/01/31 00:45:10;;;;;;;8.90;8.70;;;2.60;99.90;;;;;;6296801;22;20228;-81
2022/01/31 00:48:14;;;;;;;8.73;8.53;;;2.60;99.90;;;;;;6294995;22;20236;-82
2022/01/31 00:51:00;;;;;;;8.90;8.70;;;2.70;99.90;;;;;;6294538;22;20197;-82
2022/01/31 00:53:32;;;;;;;8.80;8.60;;;2.60;99.90;;;;;;6293578;22;20193;-82
2022/01/31 00:56:09;;;;;;;8.80;8.60;;;2.60;99.90;;;;;;6292310;22;20251;-82
2022/01/31 00:58:44;;;;;;;8.60;8.40;;;2.70;99.90;;;;;;6292881;22;20198;-82
2022/01/31 01:01:22;;;;;;;8.67;8.47;;;2.70;99.90;;;;;;6293219;22;20193;-82
2022/01/31 01:03:53;;;;;;;8.80;8.60;;;2.60;99.90;;;;;;6292020;22;20194;-82
2022/01/31 01:06:30;;;;;;;8.80;8.60;;;2.60;99.90;;;;;;6292532;22;20235;-82
2022/01/31 01:12:22;;;;;;;8.57;8.37;;;2.60;99.90;;;;;;6304664;22;20193;-81
2022/01/31 01:15:07;;;;;;;8.60;8.40;;;2.50;99.90;;;;;;6294203;22;20202;-83
2022/01/31 01:20:35;;;;;;;8.90;8.70;;;2.40;99.90;;;;;;6309493;22;20193;-82
2022/01/31 01:23:12;;;;;;;8.60;8.40;;;2.30;99.90;;;;;;6294876;22;20221;-82
2022/01/31 01:25:43;;;;;;;8.90;8.70;;;2.30;99.90;;;;;;6294161;22;20201;-81
2022/01/31 01:28:22;;;;;;;8.83;8.63;;;2.30;99.90;;;;;;6293665;22;20186;-82
2022/01/31 01:31:01;;;;;;;8.87;8.67;;;2.30;99.90;;;;;;6292250;22;20194;-82
2022/01/31 01:33:45;;;;;;;8.73;8.53;;;2.40;99.90;;;;;;6292580;22;20190;-82
2022/01/31 01:36:23;;;;;;;8.70;8.50;;;2.30;99.90;;;;;;6292192;22;20288;-82
2022/01/31 01:44:56;;;;;;;8.70;8.50;;;2.30;99.90;;;;;;6291418;22;20240;-83
2022/01/31 01:50:10;;;;;;;8.70;8.50;;;2.30;99.90;;;;;;6290735;22;20284;-82
2022/01/31 01:52:51;;;;;;;8.40;8.20;;;2.40;99.90;;;;;;6291004;22;20186;-81
2022/01/31 01:58:15;;;;;;;9.00;8.80;;;2.40;99.90;;;;;;6292638;22;20197;-81
2022/01/31 02:01:01;;;;;;;8.77;8.57;;;2.40;99.90;;;;;;6300576;22;20194;-81
2022/01/31 02:03:32;;;;;;;8.60;8.40;;;2.30;99.90;;;;;;6298493;22;20201;-82
2022/01/31 02:09:07;;;;;;;9.07;8.87;;;2.30;99.90;;;;;;6285584;22;20212;-81
2022/01/31 02:12:03;;;;;;;8.70;8.50;;;2.30;99.90;;;;;;6293153;22;20251;-82
2022/01/31 02:24:11;;;;;;;8.80;8.60;;;2.30;99.90;;;;;;6292715;22;20272;-82
2022/01/31 02:29:42;;;;;;;8.77;8.57;;;2.20;99.90;;;;;;6292937;22;20255;-82
2022/01/31 02:35:04;;;;;;;8.77;8.57;;;2.20;99.90;;;;;;6293227;22;20201;-81
2022/01/31 02:37:52;;;;;;;8.80;8.60;;;2.20;99.90;;;;;;6294587;22;20198;-82
2022/01/31 02:43:47;;;;;;;9.00;8.80;;;2.20;99.90;;;;;;6309205;22;20193;-81
2022/01/31 02:46:57;;;;;;;9.07;8.83;;;2.10;99.90;;;;;;6307496;22;20253;-81
2022/01/31 02:49:45;;;;;;;8.90;8.70;;;2.20;99.90;;;;;;6272503;22;20217;-82
2022/01/31 02:52:19;;;;;;;9.00;8.80;;;2.10;99.90;;;;;;6261687;22;20198;-81
2022/01/31 02:55:04;;;;;;;9.07;8.83;;;2.10;99.90;;;;;;6260564;22;20220;-82
2022/01/31 02:57:37;;;;;;;8.90;8.70;;;2.10;99.90;;;;;;6260361;22;20201;-82
2022/01/31 03:00:07;;;;;;;8.87;8.67;;;2.10;99.90;;;;;;6260639;22;20198;-82
2022/01/31 03:02:36;;;;;;;9.00;8.80;;;2.10;99.90;;;;;;6260766;22;20205;-81
2022/01/31 03:05:32;;;;;;;8.80;8.60;;;2.10;99.90;;;;;;6262119;22;21050;-81
2022/01/31 03:08:09;;;;;;;8.90;8.70;;;2.10;99.90;;;;;;6260051;22;20217;-82
2022/01/31 03:11:13;;;;;;;9.10;8.83;;;2.00;99.90;;;;;;6261481;22;20174;-81
2022/01/31 03:14:21;;;;;;;9.30;9.00;;;2.00;99.90;;;;;;6259979;22;20194;-81
2022/01/31 03:20:12;;;;;;;9.27;8.97;;;1.90;99.90;;;;;;6258991;22;20233;-81
2022/01/31 03:22:59;;;;;;;9.00;8.80;;;1.90;99.90;;;;;;6259647;22;20185;-81
2022/01/31 03:25:35;;;;;;;9.10;8.80;;;1.80;99.90;;;;;;6260300;22;20286;-81
2022/01/31 03:28:13;;;;;;;8.80;8.60;;;1.80;99.90;;;;;;6268276;22;20216;-81
2022/01/31 03:30:53;;;;;;;9.30;9.00;;;1.90;99.90;;;;;;6276249;22;20186;-81
2022/01/31 03:33:30;;;;;;;9.27;8.97;;;1.90;99.90;;;;;;6261371;22;20197;-81
2022/01/31 03:35:59;;;;;;;9.03;8.80;;;1.90;99.90;;;;;;6260199;22;20229;-82
2022/01/31 03:38:40;;;;;;;8.83;8.63;;;1.90;99.90;;;;;;6259718;22;20202;-82
2022/01/31 03:41:09;;;;;;;8.70;8.50;;;2.00;99.90;;;;;;6259751;22;20196;-82
2022/01/31 03:46:24;;;;;;;9.13;8.87;;;2.00;99.90;;;;;;6259622;22;20202;-82
2022/01/31 03:48:54;;;;;;;9.33;9.03;;;2.00;99.90;;;;;;6258329;22;20201;-82
2022/01/31 03:51:24;;;;;;;9.27;8.97;;;2.10;99.90;;;;;;6259032;22;20197;-82
2022/01/31 03:53:52;;;;;;;8.67;8.47;;;2.10;99.90;;;;;;6259635;22;20199;-82
2022/01/31 03:56:23;;;;;;;8.83;8.63;;;2.00;99.90;;;;;;6260535;22;20233;-82
2022/01/31 04:01:45;;;;;;;8.83;8.63;;;2.00;99.90;;;;;;6261028;22;20548;-83
2022/01/31 04:04:19;;;;;;;8.83;8.63;;;2.00;99.90;;;;;;6261737;22;20198;-82
2022/01/31 04:06:55;;;;;;;8.80;8.60;;;2.00;99.90;;;;;;6261414;22;20226;-82
2022/01/31 04:09:26;;;;;;;8.73;8.53;;;2.00;99.90;;;;;;6260584;22;20252;-82
2022/01/31 04:11:56;;;;;;;8.70;8.50;;;2.00;99.90;;;;;;6260491;22;20229;-82
2022/01/31 04:14:34;;;;;;;8.80;8.60;;;2.10;99.90;;;;;;6259761;22;20684;-82
2022/01/31 04:19:49;;;;;;;8.77;8.57;;;2.10;99.90;;;;;;6260291;22;20190;-82
2022/01/31 04:22:31;;;;;;;8.73;8.53;;;2.10;99.90;;;;;;6259529;22;20201;-82
2022/01/31 04:25:06;;;;;;;8.40;8.20;;;2.10;99.90;;;;;;6260511;22;20264;-82
2022/01/31 04:27:44;;;;;;;8.47;8.27;;;2.10;99.90;;;;;;6266682;22;20312;-82
2022/01/31 04:30:22;;;;;;;8.67;8.47;;;2.10;99.90;;;;;;6272344;22;20200;-82
2022/01/31 04:33:01;;;;;;;8.50;8.30;;;2.10;99.90;;;;;;6262589;22;20282;-81
2022/01/31 04:35:32;;;;;;;8.70;8.50;;;2.10;99.90;;;;;;6262102;22;20190;-82
2022/01/31 04:40:48;;;;;;;8.77;8.57;;;2.10;99.90;;;;;;6267076;22;20198;-82
2022/01/31 04:43:16;;;;;;;8.70;8.50;;;2.10;99.90;;;;;;6261453;22;20201;-82
2022/01/31 04:46:00;;;;;;;8.50;8.30;;;2.10;99.90;;;;;;6260855;22;20219;-82
2022/01/31 04:48:34;;;;;;;8.63;8.43;;;2.10;99.90;;;;;;6260457;22;20194;-82
2022/01/31 04:51:09;;;;;;;8.50;8.30;;;2.10;99.90;;;;;;6260447;22;20201;-82
2022/01/31 04:53:50;;;;;;;8.50;8.30;;;2.10;99.90;;;;;;6260175;22;20689;-82
2022/01/31 04:56:28;;;;;;;8.40;8.20;;;2.10;99.90;;;;;;6260323;22;20202;-82
2022/01/31 04:58:58;;;;;;;8.53;8.33;;;2.10;99.90;;;;;;6279304;22;20210;-81
2022/01/31 05:01:28;;;;;;;8.70;8.50;;;2.10;99.90;;;;;;6280402;22;20182;-81
2022/01/31 05:06:46;;;;;;;8.53;8.33;;;2.10;99.90;;;;;;6263092;22;20198;-82
2022/01/31 05:09:22;;;;;;;8.90;8.70;;;2.20;99.90;;;;;;6263524;22;20204;-82
2022/01/31 05:11:59;;;;;;;8.70;8.50;;;2.20;99.90;;;;;;6261954;22;20245;-82
2022/01/31 05:14:44;;;;;;;8.73;8.53;;;2.20;99.90;;;;;;6260309;22;20277;-82
2022/01/31 05:17:45;;;;;;;8.80;8.60;;;2.20;99.90;;;;;;6261457;22;20243;-82
2022/01/31 05:20:14;;;;;;;8.70;8.50;;;2.20;99.90;;;;;;6260824;22;20195;-82
2022/01/31 05:22:42;;;;;;;8.87;8.67;;;2.30;99.90;;;;;;6261123;22;20252;-82
2022/01/31 05:25:11;;;;;;;9.03;8.80;;;2.30;99.90;;;;;;6260621;22;20216;-82
2022/01/31 05:27:39;;;;;;;9.20;8.90;;;2.30;99.90;;;;;;6269070;22;20201;-82
2022/01/31 05:33:06;;;;;;;9.20;8.90;;;2.30;99.90;;;;;;6271038;22;20194;-82
2022/01/31 05:35:43;;;;;;;8.97;8.73;;;2.30;99.90;;;;;;6271522;22;20210;-82
2022/01/31 05:38:11;;;;;;;9.43;9.13;;;2.30;99.90;;;;;;6269731;22;20205;-82
2022/01/31 05:40:49;;;;;;;9.40;9.10;;;2.40;99.90;;;;;;6268254;22;20204;-82
2022/01/31 05:43:21;;;;;;;9.50;9.20;;;2.40;99.90;;;;;;6270800;22;20190;-82
2022/01/31 05:45:57;;;;;;;9.40;9.10;;;2.40;99.90;;;;;;6270093;22;20213;-82
2022/01/31 05:48:45;;;;;;;9.60;9.30;;;2.40;99.90;;;;;;6278993;22;20189;-81
2022/01/31 05:54:01;;;;;;;9.00;8.80;;;2.50;99.90;;;;;;6266663;22;20191;-82
2022/01/31 05:56:29;;;;;;;8.87;8.67;;;2.50;99.90;;;;;;6278557;22;20216;-78
2022/01/31 05:58:56;;;;;;;9.10;8.83;;;2.50;99.90;;;;;;6283815;22;20216;-78
2022/01/31 06:01:24;;;;;;;8.90;8.70;;;2.50;99.90;;;;;;6284666;22;20209;-78
2022/01/31 06:03:53;;;;;;;9.27;8.97;;;2.50;99.90;;;;;;6286859;22;20206;-78
2022/01/31 06:06:21;;;;;;;9.07;8.80;;;2.50;99.90;;;;;;6311258;22;20201;-78
2022/01/31 06:08:49;;;;;;;9.20;8.90;;;2.50;99.90;;;;;;6315695;22;20193;-78
2022/01/31 06:11:16;;;;;;;9.30;9.00;;;2.50;99.90;;;;;;6315498;22;20203;-78
2022/01/31 06:13:47;;;;;;;9.20;8.90;;;2.50;99.90;;;;;;6314335;22;20197;-79
2022/01/31 06:16:14;;;;;;;9.43;9.13;;;2.50;99.90;;;;;;6314812;22;20207;-78
2022/01/31 06:18:42;;;;;;;9.53;9.23;;;2.50;99.90;;;;;;6315172;22;20231;-78
2022/01/31 06:21:12;;;;;;;9.43;9.13;;;2.50;99.90;;;;;;6315317;22;20262;-78
2022/01/31 06:23:40;;;;;;;9.00;8.77;;;2.60;99.90;;;;;;6314889;22;20197;-78
2022/01/31 06:26:08;;;;;;;9.47;9.17;;;2.60;99.90;;;;;;6314621;22;20208;-78
2022/01/31 06:28:36;;;;;;;9.33;9.03;;;2.50;99.90;;;;;;6314986;22;20196;-78
2022/01/31 06:31:04;;;;;;;9.23;8.93;;;2.60;99.90;;;;;;6315700;22;20197;-78
2022/01/31 06:33:32;;;;;;;9.20;8.90;;;2.60;99.90;;;;;;6315243;22;20728;-78
2022/01/31 06:36:01;;;;;;;9.43;9.13;;;2.70;99.90;;;;;;6314811;22;20215;-78
2022/01/31 06:38:30;;;;;;;9.33;9.03;;;2.70;99.90;;;;;;6315738;22;20193;-78
2022/01/31 06:40:58;;;;;;;9.20;8.90;;;2.70;99.90;;;;;;6315269;22;20193;-78
2022/01/31 06:43:25;;;;;;;9.60;9.30;;;2.70;99.90;;;;;;6313896;22;20201;-78
2022/01/31 06:45:53;;;;;;;9.10;8.80;;;2.60;99.90;;;;;;6314240;22;20204;-78
2022/01/31 06:48:20;;;;;;;8.70;8.50;;;2.70;99.90;;;;;;6314923;22;20189;-79
2022/01/31 06:50:48;;;;;;;9.07;8.83;;;2.60;99.90;;;;;;6314992;22;20208;-78
2022/01/31 06:53:17;;;;;;;9.40;9.10;;;2.60;99.90;;;;;;6314436;22;20312;-78
2022/01/31 06:55:46;;;;;;;9.63;9.33;;;2.60;99.90;;;;;;6315084;22;20208;-80
2022/01/31 06:58:14;;;;;;;10.27;9.97;;;2.50;99.90;;;;;;6315597;22;20256;-78
2022/01/31 07:00:42;;;;;;;10.33;10.03;;;2.50;99.90;;;;;;6315552;22;20192;-79
2022/01/31 07:03:13;;;;;;;10.17;9.87;;;2.40;99.90;;;;;;6315417;22;20747;-78
2022/01/31 07:05:40;;;;;;;10.00;9.70;;;2.30;99.90;;;;;;6315618;22;20197;-78
2022/01/31 07:08:08;;;;;;;9.67;9.37;;;2.20;99.90;;;;;;6316213;22;20181;-79
2022/01/31 07:10:37;;;;;;;9.10;8.80;;;2.00;99.90;;;;;;6316198;22;20223;-79
2022/01/31 07:13:13;;;;;;;9.30;9.00;;;1.90;99.90;;;;;;6315540;22;20208;-79
2022/01/31 07:15:41;;;;;;;9.33;9.03;;;1.80;99.90;;;;;;6315559;22;20196;-79
2022/01/31 07:18:09;;;;;;;9.40;9.10;;;1.70;99.90;;;;;;6315244;22;20216;-79
2022/01/31 07:20:39;;;;;;;9.30;9.00;;;1.60;99.90;;;;;;6315628;22;20197;-78
2022/01/31 07:23:15;;;;;;;9.23;8.93;;;1.50;99.90;;;;;;6316729;22;20280;-77
2022/01/31 07:25:43;;;;;;;9.63;9.33;;;1.50;99.90;;;;;;6313269;22;20379;-78
2022/01/31 07:28:16;;;;;;;9.70;9.40;;;1.50;99.90;;;;;;6317276;22;20426;-79
2022/01/31 07:30:48;;;;;;;9.23;8.93;;;1.50;99.90;;;;;;6317278;22;20197;-78
2022/01/31 07:33:19;;;;;;;9.17;8.87;;;1.50;99.90;;;;;;6317586;22;20239;-79
2022/01/31 07:35:49;;;;;;;9.33;9.03;;;1.50;99.90;;;;;;6317662;22;20258;-79
2022/01/31 07:38:18;;;;;;;9.20;8.90;;;1.50;99.90;;;;;;6318429;22;20195;-79
2022/01/31 07:40:47;;;;;;;9.20;8.90;;;1.50;99.90;;;;;;6317742;22;20204;-79
2022/01/31 07:43:16;;;;;;;9.20;8.90;;;1.50;99.90;;;;;;6318791;22;20200;-80
2022/01/31 07:45:44;;;;;;;9.00;8.70;;;1.40;99.90;;;;;;6320324;22;20224;-79
2022/01/31 07:48:11;;;;;;;8.87;8.57;;;1.40;99.90;;;;;;6321119;22;20209;-79
2022/01/31 07:50:39;;;;;;;9.10;8.80;;;1.30;99.90;;;;;;6320127;22;20255;-78
2022/01/31 07:53:09;;;;;;;8.83;8.53;;;1.30;99.90;;;;;;6317716;22;20201;-77
2022/01/31 07:55:37;;;;;;;8.80;8.50;;;1.20;99.90;;;;;;6316342;22;20201;-80
2022/01/31 07:58:06;;;;;;;8.87;8.57;;;1.20;99.90;;;;;;6318361;22;20204;-80
2022/01/31 08:00:36;;;;;;;8.83;8.53;;;1.20;99.90;;;;;;6322054;22;20197;-79
2022/01/31 08:03:03;;;;;;;9.00;8.70;;;1.20;99.90;;;;;;6321054;22;20197;-79
2022/01/31 08:05:31;;;;;;;8.90;8.60;;;1.20;99.90;;;;;;6320460;22;20224;-78
2022/01/31 08:07:59;;;;;;;9.00;8.70;;;1.30;99.90;;;;;;6318737;22;20255;-79
2022/01/31 08:10:27;;;;;;;9.20;8.90;;;1.20;99.90;;;;;;6318148;22;20299;-79
2022/01/31 08:12:56;;;;;;;8.90;8.60;;;1.30;99.90;;;;;;6318075;22;20192;-79
2022/01/31 08:15:27;;;;;;;9.00;8.70;;;1.30;99.90;;;;;;6317376;22;20205;-78
2022/01/31 08:17:57;;;;;;;9.00;8.70;;;1.30;99.90;;;;;;6321505;22;20205;-78
2022/01/31 08:20:25;;;;;;;8.90;8.60;;;1.40;99.90;;;;;;6327783;22;20193;-78
2022/01/31 08:22:52;;;;;;;8.70;8.50;;;1.40;99.90;;;;;;6330998;22;20190;-79
2022/01/31 08:25:20;;;;;;;8.80;8.50;;;1.50;99.90;;;;;;6330459;22;20197;-78
2022/01/31 08:27:52;;;;;;;8.90;8.60;;;1.50;99.90;;;;;;6323690;22;20196;-79
2022/01/31 08:30:25;;;;;;;9.03;8.73;;;1.50;99.90;;;;;;6319756;22;20189;-80
2022/01/31 08:33:01;;;;;;;9.50;9.20;;;1.50;99.90;;;;;;6318449;22;20267;-79
2022/01/31 08:35:50;;;;;;;9.03;8.73;;;1.60;99.90;;;;;;6317964;22;20205;-79
2022/01/31 08:38:19;;;;;;;9.20;8.90;;;1.60;99.90;;;;;;6317724;22;20204;-79
2022/01/31 08:40:48;;;;;;;9.00;8.70;;;1.60;99.90;;;;;;6317565;22;20201;-79
2022/01/31 08:43:17;;;;;;;8.90;8.60;;;1.60;99.90;;;;;;6319188;22;20200;-79
2022/01/31 08:45:45;;;;;;;9.10;8.80;;;1.60;99.90;;;;;;6317407;22;20213;-79
2022/01/31 08:48:13;;;;;;;9.30;9.00;;;1.70;99.90;;;;;;6318210;22;20237;-78
2022/01/31 08:50:42;;;;;;;8.17;7.97;;;1.70;99.90;;;;;;6318198;22;20193;-79
2022/01/31 08:53:10;;;;;;;8.90;8.60;;;1.70;99.90;;;;;;6317990;22;20220;-79
2022/01/31 08:55:38;;;;;;;8.40;8.20;;;1.80;99.90;;;;;;6317821;22;20200;-79
2022/01/31 08:58:07;;;;;;;8.47;8.27;;;1.80;99.90;;;;;;6317522;22;20205;-79
2022/01/31 09:00:36;;;;;;;8.30;8.10;;;1.80;99.90;;;;;;6317079;22;20253;-79
2022/01/31 09:03:20;;;;;;;8.30;8.10;;;1.90;99.90;;;;;;6318076;22;20200;-79
2022/01/31 09:05:49;;;;;;;8.30;8.10;;;1.90;99.90;;;;;;6317904;22;20224;-79
2022/01/31 09:08:17;;;;;;;8.53;8.33;;;1.90;99.90;;;;;;6317002;22;20211;-79
2022/01/31 09:10:45;;;;;;;8.33;8.13;;;2.00;99.90;;;;;;6317815;22;20209;-78
2022/01/31 09:13:14;;;;;;;8.80;8.50;;;2.10;99.90;;;;;;6316171;22;20196;-78
2022/01/31 09:15:42;;;;;;;9.00;8.70;;;2.10;99.90;;;;;;6316473;22;20263;-79
2022/01/31 09:18:10;;;;;;;8.77;8.50;;;2.20;99.90;;;;;;6318111;22;20197;-79
2022/01/31 09:20:38;;;;;;;8.53;8.33;;;2.20;99.90;;;;;;6317804;22;20185;-79
2022/01/31 09:23:08;;;;;;;8.60;8.40;;;2.30;99.90;;;;;;6318187;22;20247;-79
2022/01/31 09:25:36;;;;;;;8.70;8.50;;;2.40;99.90;;;;;;6317874;22;21069;-79
2022/01/31 09:28:05;;;;;;;8.80;8.60;;;2.40;99.90;;;;;;6317093;22;20203;-78
2022/01/31 09:30:33;;;;;;;9.37;9.07;;;2.50;99.90;;;;;;6316989;22;20193;-79
2022/01/31 09:33:01;;;;;;;8.80;8.60;;;2.60;99.90;;;;;;6317071;22;20192;-78
2022/01/31 09:35:28;;;;;;;8.50;8.30;;;2.70;99.90;;;;;;6316650;22;20201;-78
2022/01/31 09:37:56;;;;;;;8.90;8.70;;;2.70;99.90;;;;;;6316715;22;20205;-78
2022/01/31 09:40:26;;;;;;;9.00;8.70;;;2.80;99.90;;;;;;6316221;22;20200;-79
2022/01/31 09:43:11;;;;;;;8.93;8.63;;;2.80;99.90;;;;;;6316720;22;20256;-78
2022/01/31 09:45:56;;;;;;;8.63;8.43;;;2.90;99.90;;;;;;6316166;22;20197;-78
2022/01/31 09:48:36;;;;;;;8.50;8.30;;;2.90;99.90;;;;;;6315937;22;20223;-80
2022/01/31 09:51:07;;;;;;;8.83;8.63;;;3.00;99.90;;;;;;6317074;22;20199;-79
2022/01/31 09:53:38;;;;;;;9.20;8.90;;;3.00;99.90;;;;;;6317191;22;20193;-79
2022/01/31 09:56:10;;;;;;;9.33;9.03;;;3.10;99.90;;;;;;6316719;22;20224;-80
2022/01/31 09:58:39;;;;;;;9.30;9.00;;;3.20;99.90;;;;;;6317374;22;20197;-80
2022/01/31 10:01:10;;;;;;;8.97;8.73;;;3.20;99.90;;;;;;6325251;22;20227;-80
2022/01/31 10:03:49;;;;;;;9.10;8.80;;;3.30;99.90;;;;;;6316850;22;20220;-80
2022/01/31 10:06:24;;;;;;;9.10;8.80;;;3.40;99.90;;;;;;6317605;22;20284;-80
2022/01/31 10:09:04;;;;;;;9.47;9.17;;;3.40;99.90;;;;;;6317811;22;20184;-79
2022/01/31 10:11:45;;;;;;;9.63;9.33;;;3.60;99.90;;;;;;6317334;22;20219;-80
2022/01/31 10:17:11;;;;;;;9.30;9.00;;;3.70;99.90;;;;;;6317283;22;20177;-79
2022/01/31 10:19:43;;;;;;;9.50;9.20;;;3.70;99.90;;;;;;6318685;22;20219;-80
2022/01/31 10:22:13;;;;;;;9.60;9.30;;;3.70;99.90;;;;;;6317016;22;20216;-82
2022/01/31 10:24:43;;;;;;;9.50;9.20;;;3.80;99.90;;;;;;6319386;22;20207;-81
2022/01/31 10:27:16;;;;;;;9.50;9.20;;;3.80;99.90;;;;;;6318039;22;20208;-79
2022/01/31 10:29:48;;;;;;;9.30;9.00;;;3.80;99.90;;;;;;6316253;22;20200;-79
2022/01/31 10:32:23;;;;;;;9.77;9.47;;;3.80;99.90;;;;;;6314783;22;20185;-79
2022/01/31 10:34:55;;;;;;;9.60;9.30;;;3.80;99.90;;;;;;6315056;22;20196;-78
2022/01/31 10:37:25;;;;;;;9.57;9.27;;;3.80;99.90;;;;;;6314334;22;20332;-79
2022/01/31 10:45:37;;;;;;;9.20;8.90;;;3.70;99.90;;;;;;6281404;22;20203;-79
2022/01/31 10:54:26;;;;;;;9.53;9.23;;;3.80;99.90;;;;;;6313264;22;20266;-76
2022/01/31 10:56:57;;;;;;;9.37;9.07;;;3.80;99.90;;;;;;6314297;22;20205;-75
2022/01/31 10:59:31;;;;;;;9.70;9.40;;;3.70;99.90;;;;;;6314825;22;20201;-78
2022/01/31 11:02:01;;;;;;;9.70;9.40;;;3.60;99.90;;;;;;6313862;22;20258;-79
2022/01/31 11:04:33;;;;;;;9.23;8.93;;;3.60;99.90;;;;;;6314863;22;20266;-78
2022/01/31 11:07:04;;;;;;;9.60;9.30;;;3.70;99.90;;;;;;6315464;22;20266;-79
2022/01/31 11:09:32;;;;;;;9.30;9.00;;;3.60;99.90;;;;;;6316598;22;20192;-78
2022/01/31 11:12:01;;;;;;;9.43;9.13;;;3.60;99.90;;;;;;6315744;22;20204;-79
2022/01/31 11:14:31;;;;;;;9.30;9.00;;;3.60;99.90;;;;;;6315408;22;20250;-78
2022/01/31 11:16:59;;;;;;;9.43;9.13;;;3.70;99.90;;;;;;6315488;22;20204;-76
2022/01/31 11:19:32;;;;;;;9.37;9.07;;;3.60;99.90;;;;;;6315317;22;20231;-78
2022/01/31 11:22:04;;;;;;;9.50;9.20;;;3.60;99.90;;;;;;6314874;22;20197;-78
2022/01/31 11:24:38;;;;;;;9.27;8.97;;;3.60;99.90;;;;;;6314801;22;20193;-78
2022/01/31 11:27:10;;;;;;;9.40;9.10;;;3.60;99.90;;;;;;6315135;22;20197;-78
2022/01/31 11:29:44;;;;;;;9.03;8.73;;;3.60;99.90;;;;;;6314892;22;20250;-79
2022/01/31 11:32:14;;;;;;;9.43;9.13;;;3.60;99.90;;;;;;6314712;22;20193;-78
2022/01/31 11:34:45;;;;;;;8.87;8.67;;;3.60;99.90;;;;;;6315026;22;20208;-78
2022/01/31 11:37:16;;;;;;;9.20;8.90;;;3.70;99.90;;;;;;6314170;22;20189;-78
2022/01/31 11:39:46;;;;;;;9.00;8.70;;;3.70;99.90;;;;;;6314351;22;20241;-78
2022/01/31 11:42:17;;;;;;;9.23;8.93;;;3.70;99.90;;;;;;6313881;22;20193;-78
2022/01/31 11:44:58;;;;;;;9.40;9.10;;;3.70;99.90;;;;;;6310177;22;20208;-78
2022/01/31 11:47:29;;;;;;;9.30;9.00;;;3.70;99.90;;;;;;6317141;22;20189;-79
2022/01/31 11:49:59;;;;;;;10.17;9.87;;;3.80;99.90;;;;;;6316322;22;20243;-77
2022/01/31 11:52:32;;;;;;;10.00;9.70;;;3.80;99.90;;;;;;6314851;22;20189;-78
2022/01/31 12:00:48;;;;;;;9.80;9.50;;;3.90;99.90;;;;;;6297616;22;20198;-82
2022/01/31 12:03:21;;;;;;;9.90;9.60;;;3.90;99.90;;;;;;6294443;22;20202;-83
2022/01/31 12:08:54;;;;;;;10.50;10.20;;;3.90;99.90;;;;;;6300842;22;20196;-83
2022/01/31 12:11:28;;;;;;;9.30;9.00;;;3.90;99.90;;;;;;6295742;22;20193;-82
2022/01/31 12:14:09;;;;;;;9.47;9.17;;;4.00;99.90;;;;;;6295315;22;20198;-82
2022/01/31 12:17:49;;;;;;;9.50;9.20;;;4.00;99.90;;;;;;6297558;22;20228;-82
2022/01/31 12:24:12;;;;;;;10.10;9.80;;;4.10;99.90;;;;;;6296943;22;20177;-82
2022/01/31 12:27:39;;;;;;;10.37;10.07;;;4.00;99.90;;;;;;6297096;22;20205;-82
2022/01/31 12:39:02;;;;;;;9.20;8.90;;;3.90;99.90;;;;;;6295696;22;20240;-82
2022/01/31 12:44:55;;;;;;;9.10;8.80;;;3.80;99.90;;;;;;6311227;22;20189;-82
2022/01/31 12:47:48;;;;;;;8.90;8.70;;;3.80;99.90;;;;;;6310423;22;20249;-83
2022/01/31 12:53:53;;;;;;;9.80;9.50;;;3.80;99.90;;;;;;6291636;22;20200;-83
2022/01/31 12:56:33;;;;;;;8.90;8.70;;;3.90;99.90;;;;;;6278356;22;20293;-82
2022/01/31 13:00:07;;;;;;;8.67;8.47;;;3.90;99.90;;;;;;6262563;22;20209;-81
2022/01/31 13:03:16;;;;;;;8.73;8.53;;;3.80;99.90;;;;;;6267014;22;20197;-80
2022/01/31 13:06:16;;;;;;;9.63;9.33;;;3.90;99.90;;;;;;6277013;22;20316;-81
2022/01/31 13:12:38;;;;;;;9.27;8.97;;;3.80;99.90;;;;;;6246877;22;20252;-80
2022/01/31 13:15:07;;;;;;;8.83;8.63;;;3.80;99.90;;;;;;6275621;22;20186;-81
2022/01/31 13:17:40;;;;;;;9.30;9.00;;;3.90;99.90;;;;;;6267885;22;20287;-81
2022/01/31 13:20:15;;;;;;;8.77;8.57;;;3.90;99.90;;;;;;6264836;22;21094;-83
2022/01/31 13:23:22;;;;;;;8.97;8.73;;;3.90;99.90;;;;;;6264491;22;20200;-83
2022/01/31 13:26:08;;;;;;;8.70;8.50;;;3.90;99.90;;;;;;6252132;22;20202;-83
2022/01/31 13:28:38;;;;;;;8.47;8.27;;;3.80;99.90;;;;;;6263150;22;20212;-82
2022/01/31 14:32:49;;;;;;;8.23;8.03;;;3.10;99.90;;;;;;6291372;22;20228;-82
2022/01/31 14:35:52;;;;;;;8.43;8.23;;;3.00;99.90;;;;;;6292133;22;20280;-82
2022/01/31 14:42:27;;;;;;;8.50;8.30;;;3.00;99.90;;;;;;6287409;22;20253;-82
2022/01/31 14:48:13;;;;;;;7.57;7.37;;;3.00;99.90;;;;;;6292912;22;20186;-82
2022/01/31 14:57:42;;;;;;;;;;;;;;;;;;;;;
2022/01/31 15:00:46;;;;;;;7.90;7.70;;;3.00;99.90;;;;;;6293291;22;20194;-84
2022/01/31 15:21:21;;;;;;;7.90;7.70;;;2.80;99.90;;;;;;6290174;22;20206;-82
2022/01/31 15:24:31;;;;;;;7.50;7.30;;;2.80;99.90;;;;;;6293177;22;20224;-83
2022/01/31 16:19:50;;;;;;;;;;;;;;;;;;;;;
2022/01/31 16:25:46;;;;;;;7.23;7.03;;;2.80;99.90;;;;;;6299779;22;20250;-80
2022/01/31 16:39:41;;;;;;;7.43;7.22;;;2.90;99.90;;;;;;6194749;23;20378;-81
2022/01/31 16:42:11;;;;;;;7.30;7.10;;;2.90;99.90;;;;;;6293866;22;20223;-79
2022/01/31 16:44:50;;;;;;;7.20;7.00;;;3.00;99.90;;;;;;6292894;22;20233;-79
2022/01/31 16:47:29;;;;;;;7.30;7.10;;;3.00;99.90;;;;;;6292578;22;20252;-80
2022/01/31 16:49:57;;;;;;;7.20;7.00;;;3.00;99.90;;;;;;6293676;22;20196;-80
2022/01/31 16:52:26;;;;;;;7.10;6.90;;;3.10;99.90;;;;;;6292322;22;20213;-80
2022/01/31 16:54:55;;;;;;;7.03;6.83;;;3.10;99.90;;;;;;6292605;22;20196;-80
2022/01/31 17:00:23;;;;;;;7.40;7.20;;;3.10;99.90;;;;;;6306171;22;20185;-80
2022/01/31 17:06:16;;;;;;;7.40;7.20;;;3.20;99.90;;;;;;6298870;22;20232;-82
2022/01/31 17:08:46;;;;;;;7.20;7.00;;;3.20;99.90;;;;;;6293453;22;20194;-81
2022/01/31 17:11:34;;;;;;;7.20;7.00;;;3.20;99.90;;;;;;6301692;22;20197;-81
2022/01/31 17:17:31;;;;;;;7.40;7.20;;;3.20;99.90;;;;;;6302690;22;20181;-83
2022/01/31 17:20:16;;;;;;;7.20;7.00;;;3.20;99.90;;;;;;6298923;22;20205;-82
2022/01/31 17:22:54;;;;;;;7.20;7.00;;;3.20;99.90;;;;;;6294339;22;20193;-82
2022/01/31 17:25:33;;;;;;;7.30;7.10;;;3.20;99.90;;;;;;6292208;22;20201;-83
2022/01/31 17:28:03;;;;;;;7.47;7.27;;;3.20;99.90;;;;;;6292069;22;21082;-81
2022/01/31 17:30:42;;;;;;;7.50;7.30;;;3.20;99.90;;;;;;6292605;22;20205;-81
2022/01/31 17:33:27;;;;;;;7.60;7.40;;;3.20;99.90;;;;;;6298085;22;20193;-82
2022/01/31 17:35:58;;;;;;;7.30;7.10;;;3.20;99.90;;;;;;6302255;22;20199;-82
2022/01/31 17:38:36;;;;;;;7.40;7.20;;;3.20;99.90;;;;;;6298694;22;20198;-81
2022/01/31 17:44:37;;;;;;;7.40;7.20;;;3.20;99.90;;;;;;6267366;22;20197;-83
2022/01/31 17:47:15;;;;;;;7.40;7.20;;;3.30;99.90;;;;;;6301808;22;20190;-81
2022/01/31 17:50:11;;;;;;;7.43;7.23;;;3.30;99.90;;;;;;6300973;22;20197;-82
2022/01/31 17:55:53;;;;;;;7.80;7.60;;;3.30;99.90;;;;;;6297910;22;20881;-83
2022/01/31 17:58:21;;;;;;;7.57;7.37;;;3.30;99.90;;;;;;6283200;22;20209;-82
2022/01/31 18:01:04;;;;;;;7.50;7.30;;;3.30;99.90;;;;;;6286602;22;20292;-83
2022/01/31 18:04:30;;;;;;;;;;;;;;;;;;;;;
2022/01/31 18:10:27;;;;;;;7.40;7.20;;;3.30;99.90;;;;;;6134987;22;20204;-84
2022/01/31 18:12:55;;;;;;;7.50;7.30;;;3.30;99.90;;;;;;6287089;22;20200;-83
2022/01/31 18:15:24;;;;;;;7.70;7.50;;;3.30;99.90;;;;;;6288423;22;20204;-83
2022/01/31 18:17:52;;;;;;;7.40;7.20;;;3.30;99.90;;;;;;6288734;22;20244;-84
2022/01/31 18:20:20;;;;;;;7.43;7.23;;;3.30;99.90;;;;;;6287971;22;20212;-82
2022/01/31 18:22:49;;;;;;;7.57;7.37;;;3.30;99.90;;;;;;6289384;22;20201;-83
2022/01/31 18:25:18;;;;;;;7.70;7.50;;;3.30;99.90;;;;;;6287584;22;20298;-82
2022/01/31 18:27:47;;;;;;;7.47;7.27;;;3.30;99.90;;;;;;6288323;22;20267;-82
2022/01/31 18:30:17;;;;;;;7.50;7.30;;;3.30;99.90;;;;;;6288904;22;20189;-83
2022/01/31 18:33:00;;;;;;;7.50;7.30;;;3.30;99.90;;;;;;6288961;22;20307;-82
2022/01/31 18:35:36;;;;;;;7.30;7.10;;;3.30;99.90;;;;;;6288900;22;20225;-83
2022/01/31 18:38:16;;;;;;;7.50;7.30;;;3.30;99.90;;;;;;6288503;22;20189;-84
2022/01/31 18:41:05;;;;;;;7.40;7.20;;;3.30;99.90;;;;;;6290456;22;20201;-83